createdAt,value
2018-02-17T00:00:18.223Z,95880.58
2018-02-17T00:02:44.862Z,95878.70
2018-02-17T00:05:11.426Z,95876.09
2018-02-17T00:07:38.031Z,95885.70
2018-02-17T00:10:04.647Z,95878.39
2018-02-17T00:12:31.222Z,95889.23
2018-02-17T00:14:57.890Z,95882.30
2018-02-17T00:17:24.575Z,95885.39
2018-02-17T00:19:51.148Z,95889.73
2018-02-17T00:22:17.783Z,95870.89
2018-02-17T00:24:44.430Z,95888.84
2018-02-17T00:27:11.022Z,95897.72
2018-02-17T00:29:37.610Z,95900.66
2018-02-17T00:32:04.270Z,95894.37
2018-02-17T00:34:30.871Z,95906.31
2018-02-17T00:36:57.478Z,95905.50
2018-02-17T00:39:24.066Z,95903.89
2018-02-17T00:41:50.648Z,95903.91
2018-02-17T00:44:17.271Z,95877.61
2018-02-17T00:46:43.882Z,95887.13
2018-02-17T00:49:10.504Z,95879.47
2018-02-17T00:51:37.080Z,95878.67
2018-02-17T00:54:03.640Z,95892.64
2018-02-17T00:56:30.251Z,95887.92
2018-02-17T00:58:56.869Z,95890.08
2018-02-17T01:01:23.438Z,95886.11
2018-02-17T01:03:50.045Z,95888.30
2018-02-17T01:06:16.650Z,95885.84
2018-02-17T01:08:43.284Z,95884.02
2018-02-17T01:11:09.853Z,95885.22
2018-02-17T01:13:36.455Z,95888.19
2018-02-17T01:16:03.037Z,95883.63
2018-02-17T01:18:29.659Z,95893.67
2018-02-17T01:20:56.224Z,95896.23
2018-02-17T01:23:22.836Z,95895.77
2018-02-17T01:25:49.480Z,95897.76
2018-02-17T01:28:16.121Z,95908.25
2018-02-17T01:30:42.686Z,95908.55
2018-02-17T01:33:09.270Z,95904.47
2018-02-17T01:35:35.908Z,95901.85
2018-02-17T01:38:02.511Z,95906.30
2018-02-17T01:40:29.090Z,95905.70
2018-02-17T01:42:55.709Z,95901.39
2018-02-17T01:45:22.290Z,95892.55
2018-02-17T01:47:48.955Z,95893.22
2018-02-17T01:50:15.567Z,95896.48
2018-02-17T01:52:42.127Z,95903.78
2018-02-17T01:55:08.899Z,95889.16
2018-02-17T01:57:35.478Z,95897.36
2018-02-17T02:00:02.220Z,95890.36
2018-02-17T02:02:28.834Z,95891.33
2018-02-17T02:04:55.406Z,95889.73
2018-02-17T02:07:22.024Z,95887.98
2018-02-17T02:09:48.622Z,95878.16
2018-02-17T02:12:15.227Z,95886.09
2018-02-17T02:14:41.843Z,95887.82
2018-02-17T02:17:08.426Z,95875.05
2018-02-17T02:19:35.040Z,95869.28
2018-02-17T02:22:01.645Z,95878.30
2018-02-17T02:24:28.212Z,95878.70
2018-02-17T02:26:54.847Z,95872.52
2018-02-17T02:29:21.483Z,95877.87
2018-02-17T02:31:48.105Z,95884.63
2018-02-17T02:34:14.768Z,95874.39
2018-02-17T02:36:41.341Z,95877.34
2018-02-17T02:39:07.944Z,95876.50
2018-02-17T02:41:34.603Z,95883.67
2018-02-17T02:44:01.164Z,95885.91
2018-02-17T02:46:27.721Z,95891.44
2018-02-17T02:48:54.408Z,95898.30
2018-02-17T02:51:21.011Z,95891.55
2018-02-17T02:53:47.603Z,95896.02
2018-02-17T02:56:14.285Z,95891.80
2018-02-17T02:58:40.849Z,95888.23
2018-02-17T03:01:07.457Z,95903.62
2018-02-17T03:03:34.127Z,95889.72
2018-02-17T03:06:00.696Z,95907.89
2018-02-17T03:08:27.300Z,95917.70
2018-02-17T03:10:53.967Z,95927.64
2018-02-17T03:13:20.539Z,95931.13
2018-02-17T03:15:47.169Z,95936.84
2018-02-17T03:18:13.811Z,95935.05
2018-02-17T03:20:40.431Z,95935.45
2018-02-17T03:23:07.021Z,95947.31
2018-02-17T03:25:33.663Z,95950.88
2018-02-17T03:28:00.281Z,95950.38
2018-02-17T03:30:26.893Z,95938.87
2018-02-17T03:32:53.523Z,95937.55
2018-02-17T03:35:20.124Z,95940.53
2018-02-17T03:37:46.688Z,95937.58
2018-02-17T03:40:13.352Z,95938.79
2018-02-17T03:42:39.967Z,95939.06
2018-02-17T03:45:06.533Z,95932.34
2018-02-17T03:47:33.146Z,95946.70
2018-02-17T03:49:59.718Z,95936.79
2018-02-17T03:52:26.326Z,95941.80
2018-02-17T03:54:52.886Z,95932.48
2018-02-17T03:57:19.481Z,95931.68
2018-02-17T03:59:46.093Z,95937.65
2018-02-17T04:02:12.691Z,95926.17
2018-02-17T04:04:39.334Z,95922.13
2018-02-17T04:07:05.946Z,95933.02
2018-02-17T04:09:32.521Z,95924.97
2018-02-17T04:11:59.123Z,95913.66
2018-02-17T04:14:25.683Z,95893.95
2018-02-17T04:16:52.285Z,95926.73
2018-02-17T04:19:18.847Z,95920.27
2018-02-17T04:21:45.491Z,95908.70
2018-02-17T04:24:12.066Z,95920.95
2018-02-17T04:26:38.645Z,95914.50
2018-02-17T04:29:05.233Z,95925.50
2018-02-17T04:31:31.825Z,95895.36
2018-02-17T04:33:58.413Z,95923.15
2018-02-17T04:36:24.973Z,95919.67
2018-02-17T04:38:51.537Z,95915.36
2018-02-17T04:41:18.142Z,95923.19
2018-02-17T04:43:44.721Z,95889.67
2018-02-17T04:46:11.418Z,95931.68
2018-02-17T04:48:37.977Z,95923.08
2018-02-17T04:51:04.567Z,95911.52
2018-02-17T04:53:31.184Z,95917.72
2018-02-17T04:55:57.762Z,95906.13
2018-02-17T04:58:24.338Z,95905.99
2018-02-17T05:00:50.970Z,95906.67
2018-02-17T05:03:17.573Z,95905.35
2018-02-17T05:05:44.144Z,95921.55
2018-02-17T05:08:10.758Z,95915.20
2018-02-17T05:10:37.376Z,95930.62
2018-02-17T05:13:03.953Z,95931.23
2018-02-17T05:15:30.514Z,95927.23
2018-02-17T05:17:57.125Z,95933.14
2018-02-17T05:20:23.708Z,95928.55
2018-02-17T05:22:50.313Z,95939.75
2018-02-17T05:25:16.894Z,95955.94
2018-02-17T05:27:43.455Z,95956.24
2018-02-17T05:30:10.073Z,95952.41
2018-02-17T05:32:36.633Z,95957.27
2018-02-17T05:35:03.241Z,95953.60
2018-02-17T05:37:29.807Z,95945.11
2018-02-17T05:39:56.404Z,95951.30
2018-02-17T05:42:22.963Z,95955.50
2018-02-17T05:44:49.575Z,95949.88
2018-02-17T05:47:16.187Z,95941.09
2018-02-17T05:49:42.765Z,95941.33
2018-02-17T05:52:09.337Z,95929.57
2018-02-17T05:54:35.926Z,95935.84
2018-02-17T05:57:02.529Z,95934.11
2018-02-17T05:59:29.097Z,95927.52
2018-02-17T06:01:55.702Z,95937.80
2018-02-17T06:04:22.304Z,95943.23
2018-02-17T06:06:48.862Z,95953.48
2018-02-17T06:09:15.474Z,95941.80
2018-02-17T06:11:42.081Z,95958.03
2018-02-17T06:14:08.731Z,95960.98
2018-02-17T06:16:35.292Z,95950.79
2018-02-17T06:19:01.906Z,95952.14
2018-02-17T06:21:28.465Z,95958.77
2018-02-17T06:23:55.085Z,95949.67
2018-02-17T06:26:21.649Z,95937.83
2018-02-17T06:28:48.260Z,95949.06
2018-02-17T06:31:14.907Z,95935.35
2018-02-17T06:33:41.571Z,95944.61
2018-02-17T06:36:08.205Z,95944.51
2018-02-17T06:38:34.809Z,95940.73
2018-02-17T06:41:01.365Z,95956.39
2018-02-17T06:43:28.031Z,95959.50
2018-02-17T06:45:54.635Z,95958.36
2018-02-17T06:48:21.204Z,95961.36
2018-02-17T06:50:47.822Z,95964.64
2018-02-17T06:53:14.511Z,95962.39
2018-02-17T06:55:41.079Z,95954.37
2018-02-17T06:58:07.647Z,95954.97
2018-02-17T07:00:34.273Z,95933.17
2018-02-17T07:03:00.840Z,95936.67
2018-02-17T07:05:27.437Z,95934.88
2018-02-17T07:07:54.041Z,95950.55
2018-02-17T07:10:20.627Z,95941.63
2018-02-17T07:12:47.229Z,95940.92
2018-02-17T07:15:13.789Z,95943.67
2018-02-17T07:17:40.396Z,95956.33
2018-02-17T07:20:16.997Z,95961.36
2018-02-17T07:22:49.156Z,95960.00
2018-02-17T07:25:15.788Z,95962.16
2018-02-17T07:27:42.349Z,95962.97
2018-02-17T07:30:08.987Z,95959.34
2018-02-17T07:32:35.618Z,95946.29
2018-02-17T07:35:02.234Z,95951.98
2018-02-17T07:37:28.794Z,95955.34
2018-02-17T07:39:55.370Z,95950.50
2018-02-17T07:42:21.930Z,95956.42
2018-02-17T07:44:48.552Z,95940.02
2018-02-17T07:47:15.114Z,95943.78
2018-02-17T07:49:41.717Z,95934.38
2018-02-17T07:52:08.290Z,95926.17
2018-02-17T07:54:34.915Z,95914.87
2018-02-17T07:57:01.480Z,95914.60
2018-02-17T07:59:28.052Z,95910.02
2018-02-17T08:01:54.664Z,95914.46
2018-02-17T08:04:21.241Z,95910.03
2018-02-17T08:06:47.880Z,95893.72
2018-02-17T08:09:14.538Z,95897.38
2018-02-17T08:11:41.104Z,95882.50
2018-02-17T08:14:07.733Z,95882.83
2018-02-17T08:16:34.344Z,95880.26
2018-02-17T08:19:00.961Z,95884.84
2018-02-17T08:21:27.575Z,95883.70
2018-02-17T08:23:54.176Z,95881.44
2018-02-17T08:26:20.899Z,95870.28
2018-02-17T08:28:47.476Z,95870.19
2018-02-17T08:31:14.088Z,95870.05
2018-02-17T08:33:40.682Z,95883.53
2018-02-17T08:36:07.240Z,95870.48
2018-02-17T08:38:33.857Z,95871.16
2018-02-17T08:41:00.466Z,95866.47
2018-02-17T08:43:27.070Z,95871.45
2018-02-17T08:45:53.664Z,95878.71
2018-02-17T08:48:20.291Z,95869.43
2018-02-17T08:50:46.860Z,95853.80
2018-02-17T08:53:13.468Z,95856.89
2018-02-17T08:55:40.068Z,95860.15
2018-02-17T08:58:06.673Z,95862.17
2018-02-17T09:00:33.307Z,95860.28
2018-02-17T09:02:59.904Z,95866.98
2018-02-17T09:05:26.560Z,95860.15
2018-02-17T09:07:53.156Z,95864.86
2018-02-17T09:10:19.712Z,95862.44
2018-02-17T09:12:46.376Z,95856.78
2018-02-17T09:15:13.017Z,95856.91
2018-02-17T09:17:39.589Z,95845.08
2018-02-17T09:20:06.189Z,95847.50
2018-02-17T09:22:32.757Z,95844.41
2018-02-17T09:24:59.369Z,95833.78
2018-02-17T09:27:25.970Z,95834.31
2018-02-17T09:29:52.569Z,95829.34
2018-02-17T09:32:19.137Z,95829.88
2018-02-17T09:34:45.715Z,95827.05
2018-02-17T09:37:12.306Z,95827.73
2018-02-17T09:39:38.970Z,95823.16
2018-02-17T09:42:05.527Z,95808.09
2018-02-17T09:44:32.234Z,95817.51
2018-02-17T09:46:58.798Z,95817.77
2018-02-17T09:49:25.362Z,95819.25
2018-02-17T09:51:51.984Z,95815.22
2018-02-17T09:54:18.542Z,95808.09
2018-02-17T09:56:45.152Z,95814.02
2018-02-17T09:59:11.723Z,95805.80
2018-02-17T10:01:38.427Z,95791.92
2018-02-17T10:04:04.990Z,95801.50
2018-02-17T10:06:31.556Z,95801.77
2018-02-17T10:08:58.130Z,95791.81
2018-02-17T10:11:24.714Z,95791.28
2018-02-17T10:13:51.323Z,95790.20
2018-02-17T10:16:17.923Z,95789.52
2018-02-17T10:18:44.542Z,95787.23
2018-02-17T10:21:11.114Z,95780.65
2018-02-17T10:23:37.674Z,95764.77
2018-02-17T10:26:04.283Z,95771.50
2018-02-17T10:28:30.868Z,95764.52
2018-02-17T10:30:57.443Z,95764.64
2018-02-17T10:33:24.014Z,95753.34
2018-02-17T10:35:50.613Z,95748.63
2018-02-17T10:38:17.193Z,95750.52
2018-02-17T10:40:43.801Z,95749.03
2018-02-17T10:43:10.369Z,95743.92
2018-02-17T10:45:36.989Z,95743.39
2018-02-17T10:48:03.586Z,95740.42
2018-02-17T10:50:30.145Z,95746.88
2018-02-17T10:52:56.714Z,95742.16
2018-02-17T10:55:23.289Z,95733.03
2018-02-17T10:57:49.864Z,95734.50
2018-02-17T11:00:16.450Z,95724.00
2018-02-17T11:02:43.020Z,95723.20
2018-02-17T11:05:09.596Z,95726.27
2018-02-17T11:07:36.191Z,95722.80
2018-02-17T11:10:02.860Z,95715.52
2018-02-17T11:12:29.433Z,95713.23
2018-02-17T11:14:56.003Z,95708.11
2018-02-17T11:17:22.611Z,95705.16
2018-02-17T11:19:49.229Z,95707.16
2018-02-17T11:22:15.847Z,95698.16
2018-02-17T11:24:42.445Z,95695.06
2018-02-17T11:27:09.015Z,95682.70
2018-02-17T11:29:35.608Z,95689.42
2018-02-17T11:32:02.180Z,95678.41
2018-02-17T11:34:28.800Z,95684.98
2018-02-17T11:36:55.363Z,95684.16
2018-02-17T11:39:21.980Z,95682.94
2018-02-17T11:41:48.566Z,95675.55
2018-02-17T11:44:15.180Z,95662.77
2018-02-17T11:46:41.746Z,95653.91
2018-02-17T11:49:08.360Z,95657.37
2018-02-17T11:51:34.919Z,95658.77
2018-02-17T11:54:01.525Z,95650.25
2018-02-17T11:56:28.099Z,95653.78
2018-02-17T11:58:54.916Z,95650.01
2018-02-17T12:01:21.544Z,95643.56
2018-02-17T12:03:48.169Z,95633.73
2018-02-17T12:06:15.804Z,95620.91
2018-02-17T12:08:42.362Z,95622.84
2018-02-17T12:11:08.926Z,95625.24
2018-02-17T12:13:35.495Z,95626.59
2018-02-17T12:16:02.049Z,95632.64
2018-02-17T12:18:28.610Z,95623.11
2018-02-17T12:20:55.178Z,95623.77
2018-02-17T12:23:21.791Z,95621.08
2018-02-17T12:25:48.358Z,95610.05
2018-02-17T12:28:14.987Z,95611.66
2018-02-17T12:30:41.554Z,95607.08
2018-02-17T12:33:09.178Z,95612.70
2018-02-17T12:35:35.736Z,95606.66
2018-02-17T12:38:02.295Z,95599.14
2018-02-17T12:40:28.906Z,95599.94
2018-02-17T12:42:55.482Z,95589.86
2018-02-17T12:45:22.079Z,95581.92
2018-02-17T12:47:48.636Z,95571.98
2018-02-17T12:50:15.213Z,95573.45
2018-02-17T12:52:41.818Z,95571.41
2018-02-17T12:55:08.393Z,95571.27
2018-02-17T12:57:34.950Z,95580.27
2018-02-17T13:00:01.544Z,95580.52
2018-02-17T13:02:28.152Z,95569.82
2018-02-17T13:04:54.800Z,95572.34
2018-02-17T13:07:21.371Z,95571.11
2018-02-17T13:09:47.991Z,95541.41
2018-02-17T13:12:14.581Z,95559.95
2018-02-17T13:14:41.198Z,95550.77
2018-02-17T13:17:07.873Z,95525.28
2018-02-17T13:19:34.554Z,95542.44
2018-02-17T13:22:01.145Z,95535.98
2018-02-17T13:24:27.742Z,95535.03
2018-02-17T13:26:54.341Z,95538.54
2018-02-17T13:29:20.943Z,95529.24
2018-02-17T13:31:47.530Z,95539.48
2018-02-17T13:34:14.207Z,95520.96
2018-02-17T13:36:40.796Z,95541.50
2018-02-17T13:39:07.383Z,95539.06
2018-02-17T13:41:33.974Z,95526.59
2018-02-17T13:44:00.596Z,95528.72
2018-02-17T13:46:27.166Z,95525.08
2018-02-17T13:48:53.752Z,95528.44
2018-02-17T13:51:20.318Z,95528.56
2018-02-17T13:53:46.930Z,95510.44
2018-02-17T13:56:13.515Z,95521.06
2018-02-17T13:58:40.168Z,95528.03
2018-02-17T14:01:06.763Z,95527.91
2018-02-17T14:03:33.351Z,95523.88
2018-02-17T14:05:59.966Z,95514.59
2018-02-17T14:08:26.559Z,95521.47
2018-02-17T14:10:53.118Z,95511.66
2018-02-17T14:13:19.802Z,95517.57
2018-02-17T14:15:46.366Z,95516.91
2018-02-17T14:18:12.987Z,95509.64
2018-02-17T14:20:39.577Z,95496.78
2018-02-17T14:23:06.160Z,95511.52
2018-02-17T14:25:32.731Z,95517.03
2018-02-17T14:27:59.338Z,95510.84
2018-02-17T14:30:25.922Z,95498.79
2018-02-17T14:32:52.640Z,95498.89
2018-02-17T14:35:19.153Z,95506.83
2018-02-17T14:37:45.757Z,95502.66
2018-02-17T14:40:12.329Z,95494.19
2018-02-17T14:42:38.940Z,95493.41
2018-02-17T14:45:05.518Z,95493.95
2018-02-17T14:47:32.080Z,95495.58
2018-02-17T14:49:58.674Z,95496.36
2018-02-17T14:52:25.254Z,95489.52
2018-02-17T14:54:51.843Z,95487.36
2018-02-17T14:57:18.438Z,95486.67
2018-02-17T14:59:45.042Z,95482.36
2018-02-17T15:02:11.692Z,95483.98
2018-02-17T15:04:38.270Z,95484.51
2018-02-17T15:07:04.843Z,95483.31
2018-02-17T15:09:31.425Z,95490.03
2018-02-17T15:11:58.064Z,95477.81
2018-02-17T15:14:24.638Z,95488.28
2018-02-17T15:16:51.239Z,95466.83
2018-02-17T15:19:17.949Z,95483.46
2018-02-17T15:21:44.576Z,95489.89
2018-02-17T15:24:11.158Z,95473.56
2018-02-17T15:26:37.768Z,95479.34
2018-02-17T15:29:04.349Z,95489.14
2018-02-17T15:31:30.959Z,95483.76
2018-02-17T15:33:57.520Z,95487.52
2018-02-17T15:36:24.124Z,95492.09
2018-02-17T15:38:50.727Z,95490.09
2018-02-17T15:41:17.400Z,95493.02
2018-02-17T15:43:43.981Z,95489.84
2018-02-17T15:46:10.597Z,95494.23
2018-02-17T15:48:37.237Z,95494.81
2018-02-17T15:51:03.865Z,95488.09
2018-02-17T15:53:30.487Z,95486.50
2018-02-17T15:55:57.058Z,95485.82
2018-02-17T15:58:23.677Z,95483.92
2018-02-17T16:00:50.303Z,95491.84
2018-02-17T16:03:16.926Z,95489.03
2018-02-17T16:05:43.519Z,95490.26
2018-02-17T16:08:10.136Z,95485.82
2018-02-17T16:10:36.714Z,95498.77
2018-02-17T16:13:03.331Z,95492.61
2018-02-17T16:15:29.931Z,95494.02
2018-02-17T16:17:56.571Z,95501.69
2018-02-17T16:20:23.215Z,95505.31
2018-02-17T16:22:49.847Z,95505.73
2018-02-17T16:25:16.486Z,95497.28
2018-02-17T16:27:43.082Z,95507.47
2018-02-17T16:30:09.762Z,95511.08
2018-02-17T16:32:36.397Z,95508.24
2018-02-17T16:35:02.996Z,95504.07
2018-02-17T16:37:29.616Z,95510.36
2018-02-17T16:39:56.277Z,95514.14
2018-02-17T16:42:22.866Z,95514.27
2018-02-17T16:44:49.431Z,95510.23
2018-02-17T16:47:16.052Z,95511.81
2018-02-17T16:49:42.647Z,95506.33
2018-02-17T16:52:09.258Z,95511.03
2018-02-17T16:54:35.847Z,95514.14
2018-02-17T16:57:02.450Z,95514.53
2018-02-17T16:59:29.022Z,95510.77
2018-02-17T17:01:55.661Z,95516.14
2018-02-17T17:04:22.280Z,95514.13
2018-02-17T17:06:48.897Z,95509.44
2018-02-17T17:09:15.463Z,95520.58
2018-02-17T17:11:42.091Z,95521.94
2018-02-17T17:14:08.731Z,95514.52
2018-02-17T17:16:35.336Z,95503.94
2018-02-17T17:19:01.912Z,95511.05
2018-02-17T17:21:28.516Z,95505.95
2018-02-17T17:23:55.239Z,95509.16
2018-02-17T17:26:21.846Z,95507.13
2018-02-17T17:28:48.452Z,95500.97
2018-02-17T17:31:15.024Z,95500.44
2018-02-17T17:33:41.634Z,95500.83
2018-02-17T17:36:08.268Z,95505.28
2018-02-17T17:38:34.884Z,95505.97
2018-02-17T17:41:01.447Z,95510.95
2018-02-17T17:43:28.015Z,95510.14
2018-02-17T17:45:54.640Z,95512.83
2018-02-17T17:48:21.150Z,95507.05
2018-02-17T17:50:47.745Z,95511.09
2018-02-17T17:53:14.404Z,95508.80
2018-02-17T17:55:41.002Z,95510.42
2018-02-17T17:58:07.569Z,95510.41
2018-02-17T18:00:34.177Z,95510.85
2018-02-17T18:03:00.748Z,95511.25
2018-02-17T18:05:27.360Z,95515.02
2018-02-17T18:07:53.965Z,95513.94
2018-02-17T18:10:20.517Z,95512.20
2018-02-17T18:12:47.094Z,95518.38
2018-02-17T18:15:13.693Z,95515.16
2018-02-17T18:17:40.272Z,95516.92
2018-02-17T18:20:06.859Z,95513.67
2018-02-17T18:22:33.407Z,95511.39
2018-02-17T18:24:59.992Z,95506.16
2018-02-17T18:27:26.599Z,95509.00
2018-02-17T18:29:53.161Z,95503.63
2018-02-17T18:32:19.785Z,95511.13
2018-02-17T18:34:46.379Z,95503.73
2018-02-17T18:37:12.947Z,95505.48
2018-02-17T18:39:39.512Z,95505.48
2018-02-17T18:42:06.068Z,95517.31
2018-02-17T18:44:32.685Z,95510.04
2018-02-17T18:46:59.243Z,95507.48
2018-02-17T18:49:25.804Z,95504.53
2018-02-17T18:51:52.422Z,95501.86
2018-02-17T18:54:19.023Z,95503.20
2018-02-17T18:56:45.683Z,95499.30
2018-02-17T18:59:12.340Z,95504.14
2018-02-17T19:01:38.925Z,95496.23
2018-02-17T19:04:05.495Z,95498.11
2018-02-17T19:06:32.059Z,95498.91
2018-02-17T19:08:58.674Z,95488.97
2018-02-17T19:11:26.176Z,95491.80
2018-02-17T19:13:52.772Z,95489.91
2018-02-17T19:16:19.334Z,95500.67
2018-02-17T19:18:45.944Z,95488.56
2018-02-17T19:21:12.505Z,95499.58
2018-02-17T19:23:39.068Z,95480.13
2018-02-17T19:26:05.635Z,95490.30
2018-02-17T19:28:32.260Z,95497.18
2018-02-17T19:30:58.830Z,95502.53
2018-02-17T19:33:25.399Z,95500.66
2018-02-17T19:35:51.990Z,95498.65
2018-02-17T19:38:18.637Z,95492.33
2018-02-17T19:40:45.255Z,95467.93
2018-02-17T19:43:11.795Z,95491.25
2018-02-17T19:45:38.410Z,95486.70
2018-02-17T19:48:04.970Z,95492.73
2018-02-17T19:50:31.564Z,95493.02
2018-02-17T19:52:58.171Z,95493.81
2018-02-17T19:55:24.765Z,95494.75
2018-02-17T19:57:51.360Z,95493.15
2018-02-17T20:00:17.957Z,95504.70
2018-02-17T20:02:44.507Z,95500.02
2018-02-17T20:05:11.106Z,95504.45
2018-02-17T20:07:37.690Z,95503.77
2018-02-17T20:10:04.300Z,95481.22
2018-02-17T20:12:30.882Z,95491.02
2018-02-17T20:14:57.474Z,95496.37
2018-02-17T20:17:24.068Z,95496.00
2018-02-17T20:19:50.689Z,95493.98
2018-02-17T20:22:17.273Z,95497.33
2018-02-17T20:24:43.852Z,95498.55
2018-02-17T20:27:10.433Z,95501.08
2018-02-17T20:29:37.147Z,95505.11
2018-02-17T20:32:03.759Z,95502.05
2018-02-17T20:34:30.337Z,95503.91
2018-02-17T20:36:56.983Z,95499.88
2018-02-17T20:39:23.597Z,95503.52
2018-02-17T20:41:50.311Z,95504.05
2018-02-17T20:44:16.898Z,95498.14
2018-02-17T20:46:43.522Z,95504.84
2018-02-17T20:49:10.176Z,95500.69
2018-02-17T20:51:36.876Z,95496.00
2018-02-17T20:54:03.439Z,95496.94
2018-02-17T20:56:30.023Z,95489.01
2018-02-17T20:58:56.637Z,95474.67
2018-02-17T21:01:23.307Z,95483.79
2018-02-17T21:03:49.904Z,95486.34
2018-02-17T21:06:16.540Z,95486.20
2018-02-17T21:08:43.139Z,95483.66
2018-02-17T21:11:09.796Z,95492.66
2018-02-17T21:13:36.371Z,95485.25
2018-02-17T21:16:02.941Z,95499.09
2018-02-17T21:18:29.552Z,95494.13
2018-02-17T21:20:56.129Z,95494.41
2018-02-17T21:23:22.783Z,95494.13
2018-02-17T21:25:49.358Z,95498.83
2018-02-17T21:28:15.924Z,95500.17
2018-02-17T21:30:42.501Z,95491.31
2018-02-17T21:33:09.066Z,95491.72
2018-02-17T21:35:35.726Z,95488.34
2018-02-17T21:38:02.295Z,95479.23
2018-02-17T21:40:28.855Z,95480.42
2018-02-17T21:42:55.475Z,95475.86
2018-02-17T21:45:22.123Z,95480.42
2018-02-17T21:47:48.694Z,95474.64
2018-02-17T21:50:15.262Z,95455.61
2018-02-17T21:55:08.140Z,95468.33
2018-02-17T21:57:34.779Z,95471.44
2018-02-17T22:00:01.412Z,95477.88
2018-02-17T22:02:27.962Z,95460.97
2018-02-17T22:04:54.600Z,95480.70
2018-02-17T22:07:21.206Z,95469.43
2018-02-17T22:09:47.800Z,95479.10
2018-02-17T22:12:14.386Z,95466.22
2018-02-17T22:14:40.982Z,95477.89
2018-02-17T22:17:07.548Z,95474.94
2018-02-17T22:19:34.134Z,95472.93
2018-02-17T22:22:00.742Z,95457.06
2018-02-17T22:24:27.311Z,95471.98
2018-02-17T22:26:53.869Z,95470.91
2018-02-17T22:29:20.481Z,95470.76
2018-02-17T22:31:47.048Z,95461.62
2018-02-17T22:34:13.614Z,95460.56
2018-02-17T22:36:40.176Z,95462.44
2018-02-17T22:39:06.755Z,95464.20
2018-02-17T22:41:33.372Z,95456.41
2018-02-17T22:43:59.966Z,95461.64
2018-02-17T22:46:26.570Z,95453.58
2018-02-17T22:48:53.186Z,95448.48
2018-02-17T22:51:19.811Z,95447.68
2018-02-17T22:53:46.438Z,95438.82
2018-02-17T22:56:13.052Z,95435.72
2018-02-17T22:58:39.647Z,95441.10
2018-02-17T23:01:06.265Z,95452.38
2018-02-17T23:03:32.918Z,95442.98
2018-02-17T23:05:59.500Z,95427.13
2018-02-17T23:08:26.074Z,95448.22
2018-02-17T23:10:52.672Z,95438.41
2018-02-17T23:13:19.323Z,95439.09
2018-02-17T23:15:45.887Z,95451.17
2018-02-17T23:18:12.511Z,95440.15
2018-02-17T23:20:39.127Z,95453.44
2018-02-17T23:23:05.699Z,95451.45
2018-02-17T23:25:32.337Z,95447.27
2018-02-17T23:27:58.966Z,95453.86
2018-02-17T23:30:25.550Z,95454.64
2018-02-17T23:32:52.182Z,95443.91
2018-02-17T23:35:18.785Z,95448.20
2018-02-17T23:37:45.358Z,95448.20
2018-02-17T23:40:11.951Z,95445.81
2018-02-17T23:42:38.590Z,95446.72
2018-02-17T23:45:05.278Z,95443.23
2018-02-17T23:47:31.889Z,95453.31
2018-02-17T23:49:58.494Z,95444.86
2018-02-17T23:52:25.069Z,95450.23
2018-02-17T23:54:51.675Z,95456.80
2018-02-17T23:57:18.245Z,95452.64
2018-02-17T23:59:44.848Z,95447.14
